Time;durP1;ratioP1;P1;durP2;ratioP2;P2;SDS_P1;SDS_P2;PMS_P1;PMS_P2;Temp;Humidity;BMP_temperature;BMP_pressure;BME280_temperature;BME280_humidity;BME280_pressure;Samples;Min_cycle;Max_cycle;Signal;HPM_P1;HPM_P2
2023/03/08 00:01:37;;;;;;;3.58;1.70;;;;;;;;;;5082703;27;92618;-76
2023/03/08 00:04:03;;;;;;;5.22;1.35;;;;;;;;;;5082347;27;92957;-75
2023/03/08 00:06:30;;;;;;;5.20;1.48;;;;;;;;;;5079794;27;94496;-77
2023/03/08 00:08:57;;;;;;;5.22;1.70;;;;;;;;;;5085544;27;94778;-75
2023/03/08 00:11:24;;;;;;;4.20;1.63;;;;;;;;;;5081985;27;92325;-76
2023/03/08 00:13:50;;;;;;;4.80;2.20;;;;;;;;;;5063592;27;93948;-77
2023/03/08 00:16:17;;;;;;;3.65;1.52;;;;;;;;;;5082010;27;93140;-75
2023/03/08 00:18:43;;;;;;;4.65;1.70;;;;;;;;;;5081454;27;92252;-76
2023/03/08 00:21:11;;;;;;;4.00;1.80;;;;;;;;;;5082055;27;93387;-76
2023/03/08 00:23:38;;;;;;;4.85;1.83;;;;;;;;;;5059998;27;93021;-76
2023/03/08 00:26:05;;;;;;;3.78;1.60;;;;;;;;;;5073430;27;92062;-76
2023/03/08 00:28:31;;;;;;;3.55;1.30;;;;;;;;;;5066408;27;92411;-76
2023/03/08 00:30:59;;;;;;;4.15;1.52;;;;;;;;;;5070548;27;94848;-75
2023/03/08 00:33:26;;;;;;;3.50;1.50;;;;;;;;;;5085760;27;98237;-75
2023/03/08 00:35:57;;;;;;;4.15;1.30;;;;;;;;;;5081261;27;92769;-76
2023/03/08 00:38:24;;;;;;;4.82;1.60;;;;;;;;;;5063274;27;92097;-76
2023/03/08 00:40:51;;;;;;;3.47;1.35;;;;;;;;;;5083806;27;99766;-76
2023/03/08 00:43:17;;;;;;;3.25;1.60;;;;;;;;;;5083173;27;92619;-76
2023/03/08 00:45:44;;;;;;;3.47;1.55;;;;;;;;;;5063183;27;92187;-76
2023/03/08 00:48:10;;;;;;;4.55;1.45;;;;;;;;;;5063576;27;95392;-76
2023/03/08 00:50:37;;;;;;;4.30;1.60;;;;;;;;;;5083961;27;93068;-76
2023/03/08 00:53:03;;;;;;;3.78;1.20;;;;;;;;;;5062676;27;93626;-76
2023/03/08 00:55:29;;;;;;;2.90;1.33;;;;;;;;;;5079401;27;94912;-76
2023/03/08 00:57:56;;;;;;;3.72;1.30;;;;;;;;;;5081860;27;92475;-76
2023/03/08 01:00:23;;;;;;;5.13;1.48;;;;;;;;;;5046043;27;94589;-76
2023/03/08 01:02:49;;;;;;;3.10;1.40;;;;;;;;;;5045112;27;92986;-76
2023/03/08 01:05:16;;;;;;;2.90;1.40;;;;;;;;;;5063254;27;92798;-76
2023/03/08 01:07:42;;;;;;;3.58;1.45;;;;;;;;;;5076476;27;92379;-75
2023/03/08 01:10:09;;;;;;;3.97;1.45;;;;;;;;;;5081122;27;92141;-75
2023/03/08 01:12:36;;;;;;;3.20;1.27;;;;;;;;;;5084362;27;93018;-77
2023/03/08 01:15:03;;;;;;;3.25;1.40;;;;;;;;;;5045812;27;94442;-78
2023/03/08 01:17:29;;;;;;;3.78;1.50;;;;;;;;;;5062796;27;92302;-77
2023/03/08 01:19:59;;;;;;;2.97;1.45;;;;;;;;;;5059705;27;94733;-78
2023/03/08 01:22:25;;;;;;;2.83;1.40;;;;;;;;;;5062852;27;92792;-76
2023/03/08 01:24:53;;;;;;;4.72;1.48;;;;;;;;;;5061495;27;94200;-77
2023/03/08 01:27:19;;;;;;;3.38;1.50;;;;;;;;;;5081375;27;92876;-78
2023/03/08 01:29:46;;;;;;;3.45;1.50;;;;;;;;;;5080970;27;92820;-78
2023/03/08 01:32:12;;;;;;;3.45;1.40;;;;;;;;;;5094323;27;92571;-78
2023/03/08 01:34:38;;;;;;;4.35;1.55;;;;;;;;;;5049790;27;93524;-78
2023/03/08 01:37:05;;;;;;;3.05;1.40;;;;;;;;;;5082303;27;92303;-78
2023/03/08 01:39:31;;;;;;;4.10;1.58;;;;;;;;;;5080960;27;92396;-76
2023/03/08 01:41:58;;;;;;;4.05;1.50;;;;;;;;;;5061825;27;94667;-77
2023/03/08 01:44:24;;;;;;;4.72;1.48;;;;;;;;;;5060455;27;94586;-77
2023/03/08 01:46:52;;;;;;;3.83;1.60;;;;;;;;;;5080392;27;99617;-76
2023/03/08 01:49:28;;;;;;;5.82;1.75;;;;;;;;;;5057923;27;94538;-75
2023/03/08 01:52:00;;;;;;;6.28;1.88;;;;;;;;;;5045977;27;92350;-77
2023/03/08 01:54:35;;;;;;;4.50;1.60;;;;;;;;;;5080351;27;92559;-77
2023/03/08 01:57:04;;;;;;;4.22;1.40;;;;;;;;;;5065135;27;93809;-76
2023/03/08 01:59:31;;;;;;;6.07;1.60;;;;;;;;;;5044964;27;94551;-77
2023/03/08 02:01:58;;;;;;;;;;;;;;;;;;5080690;27;91979;-77
2023/03/08 02:04:25;;;;;;;4.13;1.58;;;;;;;;;;5082186;27;92951;-77
2023/03/08 02:06:51;;;;;;;3.50;1.42;;;;;;;;;;5080350;27;96615;-77
2023/03/08 02:09:21;;;;;;;3.25;1.40;;;;;;;;;;5060049;27;97644;-77
2023/03/08 02:11:48;;;;;;;4.95;1.83;;;;;;;;;;5062019;27;92795;-76
2023/03/08 02:14:14;;;;;;;5.53;1.40;;;;;;;;;;5080000;27;94228;-76
2023/03/08 02:16:43;;;;;;;10.20;2.40;;;;;;;;;;5056907;27;95147;-75
2023/03/08 02:19:13;;;;;;;5.47;1.75;;;;;;;;;;5063855;27;92581;-76
2023/03/08 02:21:39;;;;;;;3.92;1.63;;;;;;;;;;5061790;27;95197;-76
2023/03/08 02:24:15;;;;;;;4.88;1.75;;;;;;;;;;5062401;27;92103;-76
2023/03/08 02:26:44;;;;;;;4.43;1.50;;;;;;;;;;5061422;27;94706;-77
2023/03/08 02:29:10;;;;;;;4.97;1.83;;;;;;;;;;5080155;27;93956;-75
2023/03/08 02:31:37;;;;;;;3.78;1.67;;;;;;;;;;5093263;27;92262;-75
2023/03/08 02:34:03;;;;;;;5.28;2.03;;;;;;;;;;5078697;27;95174;-76
2023/03/08 02:36:29;;;;;;;5.75;1.65;;;;;;;;;;5057725;27;94886;-75
2023/03/08 02:38:56;;;;;;;3.97;1.55;;;;;;;;;;5087030;27;92183;-76
2023/03/08 02:41:22;;;;;;;3.42;1.33;;;;;;;;;;5064178;27;94919;-76
2023/03/08 02:43:49;;;;;;;4.88;1.70;;;;;;;;;;5065477;27;92441;-75
2023/03/08 02:46:15;;;;;;;4.13;1.52;;;;;;;;;;5079813;27;92469;-76
2023/03/08 02:48:44;;;;;;;4.28;1.60;;;;;;;;;;5047502;27;94699;-76
2023/03/08 02:51:11;;;;;;;4.35;1.60;;;;;;;;;;5065303;27;91311;-75
2023/03/08 02:53:37;;;;;;;4.88;1.73;;;;;;;;;;5083783;27;92070;-76
2023/03/08 02:56:04;;;;;;;4.20;1.70;;;;;;;;;;5064149;27;93945;-76
2023/03/08 02:58:30;;;;;;;4.10;1.83;;;;;;;;;;5080834;27;94751;-76
2023/03/08 03:00:57;;;;;;;6.45;1.63;;;;;;;;;;5085957;27;95468;-76
2023/03/08 03:03:24;;;;;;;4.82;1.88;;;;;;;;;;5064971;27;92435;-76
2023/03/08 03:05:50;;;;;;;5.68;1.90;;;;;;;;;;5064528;27;92627;-76
2023/03/08 03:08:23;;;;;;;7.53;2.17;;;;;;;;;;5061364;27;95016;-77
2023/03/08 03:10:52;;;;;;;5.20;1.65;;;;;;;;;;5060986;27;93443;-76
2023/03/08 03:13:19;;;;;;;6.65;1.60;;;;;;;;;;5064577;27;92915;-76
2023/03/08 03:15:46;;;;;;;4.07;1.80;;;;;;;;;;5065065;27;93028;-76
2023/03/08 03:18:12;;;;;;;4.47;2.15;;;;;;;;;;5064365;27;92155;-76
2023/03/08 03:20:39;;;;;;;5.18;1.90;;;;;;;;;;5063448;27;93379;-74
2023/03/08 03:23:07;;;;;;;5.05;2.03;;;;;;;;;;5066127;27;97575;-76
2023/03/08 03:25:43;;;;;;;4.72;1.90;;;;;;;;;;5064392;27;96965;-75
2023/03/08 03:28:13;;;;;;;4.13;1.85;;;;;;;;;;5063541;27;95047;-75
2023/03/08 03:30:41;;;;;;;4.88;2.10;;;;;;;;;;5063900;27;99659;-75
2023/03/08 03:33:10;;;;;;;6.32;2.00;;;;;;;;;;5064402;27;94970;-76
2023/03/08 03:35:39;;;;;;;7.75;2.17;;;;;;;;;;5082550;27;92636;-76
2023/03/08 03:38:07;;;;;;;5.97;2.25;;;;;;;;;;5047684;27;92566;-76
2023/03/08 03:40:34;;;;;;;4.40;1.95;;;;;;;;;;5063695;27;92416;-77
2023/03/08 03:43:02;;;;;;;6.03;2.10;;;;;;;;;;5082548;27;93150;-76
2023/03/08 03:45:29;;;;;;;5.80;1.90;;;;;;;;;;5067130;27;92588;-76
2023/03/08 03:47:55;;;;;;;7.30;2.40;;;;;;;;;;5062157;27;96739;-75
2023/03/08 03:50:22;;;;;;;6.20;2.22;;;;;;;;;;5063064;27;92456;-76
2023/03/08 03:52:53;;;;;;;5.82;2.20;;;;;;;;;;5063899;27;99399;-77
2023/03/08 03:55:20;;;;;;;4.97;2.10;;;;;;;;;;5062812;27;92888;-76
2023/03/08 03:57:46;;;;;;;5.60;2.22;;;;;;;;;;5064070;27;92056;-76
2023/03/08 04:00:15;;;;;;;5.40;2.10;;;;;;;;;;5082271;27;92281;-76
2023/03/08 04:02:49;;;;;;;5.68;1.98;;;;;;;;;;5062381;27;95063;-76
2023/03/08 04:05:20;;;;;;;9.18;2.60;;;;;;;;;;5064053;27;91554;-76
2023/03/08 04:07:49;;;;;;;10.60;2.58;;;;;;;;;;5085007;27;92552;-76
2023/03/08 04:10:18;;;;;;;6.78;2.40;;;;;;;;;;5076318;27;92263;-76
2023/03/08 04:12:48;;;;;;;6.70;2.65;;;;;;;;;;5061174;27;95101;-75
2023/03/08 04:15:16;;;;;;;6.88;2.80;;;;;;;;;;5063678;27;95516;-76
2023/03/08 04:17:43;;;;;;;6.85;2.70;;;;;;;;;;5063458;27;92300;-75
2023/03/08 04:20:10;;;;;;;6.93;2.80;;;;;;;;;;5063444;27;92463;-75
2023/03/08 04:22:41;;;;;;;7.32;3.03;;;;;;;;;;5060955;27;92938;-76
2023/03/08 04:25:15;;;;;;;6.68;2.83;;;;;;;;;;5063314;27;92183;-76
2023/03/08 04:27:48;;;;;;;7.85;2.97;;;;;;;;;;5047203;27;95181;-76
2023/03/08 04:30:14;;;;;;;6.85;2.67;;;;;;;;;;5066613;27;94524;-76
2023/03/08 04:32:42;;;;;;;8.20;3.20;;;;;;;;;;5062791;27;93010;-76
2023/03/08 04:35:09;;;;;;;7.28;2.90;;;;;;;;;;5061659;27;92705;-75
2023/03/08 04:37:39;;;;;;;7.63;3.50;;;;;;;;;;5045436;27;94923;-75
2023/03/08 04:40:10;;;;;;;8.50;3.45;;;;;;;;;;5081560;27;95018;-76
2023/03/08 04:42:44;;;;;;;9.95;3.55;;;;;;;;;;5062225;27;95201;-77
2023/03/08 04:45:14;;;;;;;8.75;3.53;;;;;;;;;;5063041;27;92524;-77
2023/03/08 04:47:40;;;;;;;8.13;3.72;;;;;;;;;;5081364;27;92699;-77
2023/03/08 04:50:08;;;;;;;8.63;4.00;;;;;;;;;;5065777;27;94408;-77
2023/03/08 04:52:35;;;;;;;10.73;3.60;;;;;;;;;;5079846;27;92314;-75
2023/03/08 04:55:03;;;;;;;10.40;4.05;;;;;;;;;;5046294;27;94639;-74
2023/03/08 04:57:30;;;;;;;10.60;4.30;;;;;;;;;;5062503;27;92534;-75
2023/03/08 04:59:58;;;;;;;9.75;4.00;;;;;;;;;;5061640;27;94850;-75
2023/03/08 05:02:24;;;;;;;10.93;4.18;;;;;;;;;;5060903;27;96708;-75
2023/03/08 05:04:51;;;;;;;10.73;4.22;;;;;;;;;;5077707;27;92189;-76
2023/03/08 05:07:18;;;;;;;10.52;4.78;;;;;;;;;;5060594;27;92441;-75
2023/03/08 05:09:46;;;;;;;10.52;4.70;;;;;;;;;;5046068;27;94781;-75
2023/03/08 05:12:13;;;;;;;12.18;4.60;;;;;;;;;;5048641;27;92315;-75
2023/03/08 05:14:47;;;;;;;11.98;4.70;;;;;;;;;;5080788;27;93660;-76
2023/03/08 05:17:14;;;;;;;9.80;4.50;;;;;;;;;;5081269;27;92314;-76
2023/03/08 05:19:40;;;;;;;10.48;4.45;;;;;;;;;;5080789;27;93219;-75
2023/03/08 05:22:08;;;;;;;;;;;;;;;;;;5062621;27;92793;-77
2023/03/08 05:24:40;;;;;;;10.63;4.00;;;;;;;;;;5062585;27;92517;-75
2023/03/08 05:27:10;;;;;;;10.13;4.78;;;;;;;;;;5060858;27;95052;-76
2023/03/08 05:29:37;;;;;;;10.20;4.88;;;;;;;;;;5062439;27;95449;-76
2023/03/08 05:32:04;;;;;;;12.35;4.78;;;;;;;;;;5045150;27;92168;-75
2023/03/08 05:34:32;;;;;;;12.23;5.28;;;;;;;;;;5064440;27;95775;-76
2023/03/08 05:37:00;;;;;;;16.27;4.88;;;;;;;;;;5061928;27;92441;-76
2023/03/08 05:39:29;;;;;;;11.43;4.70;;;;;;;;;;5057983;27;95510;-76
2023/03/08 05:42:01;;;;;;;11.80;4.70;;;;;;;;;;5061922;27;94943;-76
2023/03/08 05:44:35;;;;;;;10.60;4.65;;;;;;;;;;5061666;27;92212;-75
2023/03/08 05:47:02;;;;;;;10.75;4.90;;;;;;;;;;5058773;27;94042;-75
2023/03/08 05:49:29;;;;;;;11.65;4.85;;;;;;;;;;5056215;27;94545;-75
2023/03/08 05:51:55;;;;;;;11.10;4.32;;;;;;;;;;5060376;27;95046;-77
2023/03/08 05:54:23;;;;;;;16.92;5.35;;;;;;;;;;5061907;27;97722;-76
2023/03/08 05:56:53;;;;;;;12.38;4.80;;;;;;;;;;5048073;27;101288;-76
2023/03/08 05:59:29;;;;;;;10.60;4.95;;;;;;;;;;5061902;27;95681;-76
2023/03/08 06:01:59;;;;;;;11.65;4.75;;;;;;;;;;5052873;27;95165;-75
2023/03/08 06:04:36;;;;;;;12.18;4.93;;;;;;;;;;5061320;27;93602;-76
2023/03/08 06:07:03;;;;;;;10.77;5.00;;;;;;;;;;5061799;27;94775;-76
2023/03/08 06:09:36;;;;;;;;;;;;;;;;;;5062421;27;94659;-76
2023/03/08 06:12:03;;;;;;;10.32;4.82;;;;;;;;;;5066452;27;92633;-76
2023/03/08 06:14:29;;;;;;;10.90;4.93;;;;;;;;;;5064742;27;94864;-76
2023/03/08 06:16:56;;;;;;;10.35;5.00;;;;;;;;;;5062941;27;98772;-77
2023/03/08 06:19:25;;;;;;;10.57;4.63;;;;;;;;;;5051775;27;92762;-76
2023/03/08 06:21:54;;;;;;;10.35;5.03;;;;;;;;;;5056532;27;95090;-76
2023/03/08 06:24:21;;;;;;;11.35;5.07;;;;;;;;;;5065296;27;92432;-75
2023/03/08 06:26:48;;;;;;;11.13;5.03;;;;;;;;;;5047490;27;94744;-76
2023/03/08 06:29:15;;;;;;;9.68;4.80;;;;;;;;;;5063710;27;95638;-76
2023/03/08 06:31:42;;;;;;;11.30;5.20;;;;;;;;;;5071699;27;92589;-75
2023/03/08 06:34:10;;;;;;;11.10;5.30;;;;;;;;;;5065756;27;94748;-75
2023/03/08 06:36:37;;;;;;;10.23;5.00;;;;;;;;;;5043642;27;95721;-76
2023/03/08 06:39:05;;;;;;;10.05;5.30;;;;;;;;;;5065188;27;92514;-76
2023/03/08 06:41:32;;;;;;;10.57;5.05;;;;;;;;;;5066353;27;95269;-76
2023/03/08 06:44:01;;;;;;;11.45;5.65;;;;;;;;;;5063735;27;92659;-76
2023/03/08 06:46:27;;;;;;;10.43;5.20;;;;;;;;;;5064109;27;95179;-76
2023/03/08 06:48:54;;;;;;;9.82;4.80;;;;;;;;;;5083414;27;92946;-77
2023/03/08 06:51:21;;;;;;;12.13;6.05;;;;;;;;;;5064952;27;92103;-76
2023/03/08 06:53:48;;;;;;;11.10;4.78;;;;;;;;;;5065218;27;94740;-77
2023/03/08 06:56:19;;;;;;;11.43;5.32;;;;;;;;;;5064237;27;94996;-77
2023/03/08 06:58:45;;;;;;;10.88;5.22;;;;;;;;;;5075312;27;91572;-78
2023/03/08 07:01:12;;;;;;;12.40;5.50;;;;;;;;;;5086551;27;92312;-78
2023/03/08 07:03:39;;;;;;;10.77;5.47;;;;;;;;;;5083941;27;92401;-77
2023/03/08 07:06:06;;;;;;;14.68;5.47;;;;;;;;;;5081547;27;94475;-77
2023/03/08 07:08:33;;;;;;;11.88;5.70;;;;;;;;;;5063841;27;95274;-77
2023/03/08 07:11:00;;;;;;;10.55;5.25;;;;;;;;;;5046841;27;92047;-77
2023/03/08 07:13:27;;;;;;;10.68;5.15;;;;;;;;;;5083280;27;93161;-78
2023/03/08 07:15:54;;;;;;;;;;;;;;;;;;5082810;27;92783;-78
2023/03/08 07:18:20;;;;;;;11.10;5.32;;;;;;;;;;5065225;27;101532;-76
2023/03/08 07:20:56;;;;;;;10.98;5.40;;;;;;;;;;5078523;27;98684;-77
2023/03/08 07:23:23;;;;;;;11.10;5.25;;;;;;;;;;5081403;27;98440;-77
2023/03/08 07:25:50;;;;;;;10.82;5.25;;;;;;;;;;5055593;27;98265;-78
2023/03/08 07:28:17;;;;;;;9.68;4.97;;;;;;;;;;5059733;27;99587;-77
2023/03/08 07:30:47;;;;;;;11.90;5.40;;;;;;;;;;5077443;27;99430;-77
2023/03/08 07:33:15;;;;;;;11.55;5.72;;;;;;;;;;5078248;27;99534;-78
2023/03/08 07:35:41;;;;;;;13.73;5.63;;;;;;;;;;5078078;27;99158;-76
2023/03/08 07:38:08;;;;;;;11.52;5.53;;;;;;;;;;5077820;27;99786;-77
2023/03/08 07:40:34;;;;;;;10.70;5.45;;;;;;;;;;5046720;27;98904;-78
2023/03/08 07:43:00;;;;;;;10.93;5.35;;;;;;;;;;5056629;27;101533;-77
2023/03/08 07:45:36;;;;;;;13.15;5.38;;;;;;;;;;5062989;27;98421;-77
2023/03/08 07:48:02;;;;;;;11.30;5.25;;;;;;;;;;5077919;27;98039;-77
2023/03/08 07:50:29;;;;;;;11.45;5.10;;;;;;;;;;5041361;27;98264;-77
2023/03/08 07:52:57;;;;;;;10.95;5.28;;;;;;;;;;5059113;27;101246;-78
2023/03/08 07:55:24;;;;;;;12.25;4.85;;;;;;;;;;5057978;27;102295;-77
2023/03/08 07:57:51;;;;;;;10.32;4.65;;;;;;;;;;5077726;27;99140;-77
2023/03/08 08:00:18;;;;;;;10.00;4.95;;;;;;;;;;5077660;27;98662;-76
2023/03/08 08:02:44;;;;;;;10.40;5.10;;;;;;;;;;5076312;27;99192;-78
2023/03/08 08:05:11;;;;;;;10.18;4.53;;;;;;;;;;5077972;27;99180;-77
2023/03/08 08:07:38;;;;;;;20.70;5.65;;;;;;;;;;5061887;27;98663;-77
2023/03/08 08:10:05;;;;;;;9.75;5.03;;;;;;;;;;5077424;27;98630;-77
2023/03/08 08:12:32;;;;;;;9.20;4.63;;;;;;;;;;5077194;27;98476;-77
2023/03/08 08:14:58;;;;;;;11.98;5.03;;;;;;;;;;5077220;27;98940;-78
2023/03/08 08:17:25;;;;;;;10.00;5.10;;;;;;;;;;5077487;27;98175;-78
2023/03/08 08:19:51;;;;;;;10.65;5.18;;;;;;;;;;5077164;27;98972;-78
2023/03/08 08:22:18;;;;;;;10.65;4.90;;;;;;;;;;5073324;27;99810;-77
2023/03/08 08:24:44;;;;;;;10.20;5.18;;;;;;;;;;5057854;27;98652;-79
2023/03/08 08:27:11;;;;;;;10.93;5.30;;;;;;;;;;5077360;27;100134;-78
2023/03/08 08:29:40;;;;;;;11.73;4.90;;;;;;;;;;5061215;27;101601;-78
2023/03/08 08:32:07;;;;;;;10.75;5.13;;;;;;;;;;5078122;27;98520;-78
2023/03/08 08:34:33;;;;;;;10.27;5.15;;;;;;;;;;5056180;27;101655;-78
2023/03/08 08:36:59;;;;;;;10.18;4.65;;;;;;;;;;5077246;27;97886;-77
2023/03/08 08:39:26;;;;;;;9.32;4.75;;;;;;;;;;5054894;27;100287;-78
2023/03/08 08:41:52;;;;;;;9.77;4.97;;;;;;;;;;5057974;27;100882;-78
2023/03/08 08:44:19;;;;;;;10.70;5.00;;;;;;;;;;5076277;27;99360;-77
2023/03/08 08:46:45;;;;;;;9.85;4.75;;;;;;;;;;5056080;27;101842;-78
2023/03/08 08:49:12;;;;;;;9.55;4.88;;;;;;;;;;5076017;27;98823;-78
2023/03/08 08:51:38;;;;;;;9.80;4.93;;;;;;;;;;5048594;27;98797;-78
2023/03/08 08:54:05;;;;;;;9.98;5.03;;;;;;;;;;5057931;27;99076;-78
2023/03/08 08:56:31;;;;;;;9.35;4.55;;;;;;;;;;5057172;27;98300;-78
2023/03/08 08:59:00;;;;;;;9.13;5.00;;;;;;;;;;5075747;27;98535;-78
2023/03/08 09:01:28;;;;;;;10.95;5.50;;;;;;;;;;5056819;27;100472;-78
2023/03/08 09:03:54;;;;;;;11.15;5.15;;;;;;;;;;5075105;27;98309;-78
2023/03/08 09:06:21;;;;;;;10.02;5.25;;;;;;;;;;5075255;27;105753;-77
2023/03/08 09:08:49;;;;;;;9.68;4.80;;;;;;;;;;5054924;27;99615;-78
2023/03/08 09:11:15;;;;;;;9.60;4.90;;;;;;;;;;5078053;27;98503;-77
2023/03/08 09:13:42;;;;;;;10.27;4.85;;;;;;;;;;5057968;27;101569;-79
2023/03/08 09:16:18;;;;;;;9.82;4.82;;;;;;;;;;5076102;27;98442;-78
2023/03/08 09:18:44;;;;;;;8.98;4.70;;;;;;;;;;5056813;27;100587;-78
2023/03/08 09:21:11;;;;;;;9.20;4.90;;;;;;;;;;5057529;27;101477;-78
2023/03/08 09:23:37;;;;;;;9.98;4.70;;;;;;;;;;5058588;27;98675;-78
2023/03/08 09:26:05;;;;;;;10.35;5.18;;;;;;;;;;5079429;27;98974;-77
2023/03/08 09:28:31;;;;;;;10.57;5.03;;;;;;;;;;5075949;27;98825;-77
2023/03/08 09:30:58;;;;;;;9.20;4.50;;;;;;;;;;5047069;27;98743;-77
2023/03/08 09:33:24;;;;;;;9.52;4.80;;;;;;;;;;5043304;27;101968;-78
2023/03/08 09:35:57;;;;;;;9.85;4.88;;;;;;;;;;5076326;27;98824;-78
2023/03/08 09:38:24;;;;;;;;;;;;;;;;;;5076589;27;98903;-79
2023/03/08 09:41:01;;;;;;;10.10;4.82;;;;;;;;;;5073940;27;126045;-79
2023/03/08 09:43:36;;;;;;;9.40;4.82;;;;;;;;;;5075970;27;98230;-78
2023/03/08 09:46:03;;;;;;;9.43;4.90;;;;;;;;;;5075380;27;98900;-77
2023/03/08 09:48:30;;;;;;;9.30;4.78;;;;;;;;;;5056719;27;99141;-79
2023/03/08 09:51:01;;;;;;;9.65;4.90;;;;;;;;;;5076540;27;97423;-79
2023/03/08 09:53:33;;;;;;;10.20;5.25;;;;;;;;;;5076860;27;98375;-79
2023/03/08 09:56:05;;;;;;;9.90;4.57;;;;;;;;;;5060752;27;99235;-77
2023/03/08 09:58:45;;;;;;;10.07;5.32;;;;;;;;;;5075053;27;99473;-79
2023/03/08 10:01:15;;;;;;;10.13;5.63;;;;;;;;;;5073563;27;98847;-79
2023/03/08 10:03:52;;;;;;;9.43;5.05;;;;;;;;;;5075583;27;98423;-79
2023/03/08 10:06:23;;;;;;;10.15;4.95;;;;;;;;;;5047551;27;100925;-79
2023/03/08 10:09:06;;;;;;;12.38;5.05;;;;;;;;;;5074569;27;99313;-77
2023/03/08 10:11:46;;;;;;;10.95;4.95;;;;;;;;;;5075896;27;98939;-77
2023/03/08 10:14:25;;;;;;;8.75;4.50;;;;;;;;;;5076371;27;99393;-78
2023/03/08 10:16:54;;;;;;;9.20;4.80;;;;;;;;;;5074659;27;102402;-78
2023/03/08 10:19:29;;;;;;;8.88;4.65;;;;;;;;;;5078458;27;98358;-78
2023/03/08 10:21:57;;;;;;;8.82;4.68;;;;;;;;;;5074459;27;99987;-79
2023/03/08 10:24:28;;;;;;;9.55;4.68;;;;;;;;;;5074713;27;98883;-79
2023/03/08 10:26:59;;;;;;;8.77;4.80;;;;;;;;;;5056348;27;105987;-79
2023/03/08 10:29:27;;;;;;;8.90;4.28;;;;;;;;;;5053640;27;98989;-81
2023/03/08 10:31:54;;;;;;;8.27;4.25;;;;;;;;;;5075925;27;98291;-78
2023/03/08 10:34:23;;;;;;;8.88;4.78;;;;;;;;;;5077795;27;98600;-79
2023/03/08 10:36:49;;;;;;;7.72;4.10;;;;;;;;;;5069512;27;98968;-79
2023/03/08 10:39:16;;;;;;;7.78;4.18;;;;;;;;;;5070512;27;98615;-79
2023/03/08 10:41:44;;;;;;;9.43;4.38;;;;;;;;;;5078561;27;98618;-78
2023/03/08 10:44:29;;;;;;;8.38;4.18;;;;;;;;;;5072878;27;98616;-78
2023/03/08 10:46:55;;;;;;;9.50;4.47;;;;;;;;;;5044535;27;102730;-78
2023/03/08 10:49:23;;;;;;;9.23;4.45;;;;;;;;;;5074714;27;99502;-80
2023/03/08 10:51:56;;;;;;;11.43;4.40;;;;;;;;;;5075281;27;98506;-79
2023/03/08 10:54:23;;;;;;;10.10;4.40;;;;;;;;;;5056591;27;100858;-79
2023/03/08 10:56:56;;;;;;;9.43;4.10;;;;;;;;;;5037419;27;98791;-80
2023/03/08 10:59:26;;;;;;;;;;;;;;;;;;5042823;27;98265;-81
2023/03/08 11:01:55;;;;;;;12.07;4.03;;;;;;;;;;5081606;27;98912;-80
2023/03/08 11:04:23;;;;;;;9.23;4.35;;;;;;;;;;5059285;27;98450;-80
2023/03/08 11:06:49;;;;;;;9.15;4.55;;;;;;;;;;5077266;27;98926;-80
2023/03/08 11:09:18;;;;;;;8.07;4.22;;;;;;;;;;5059917;27;100227;-80
2023/03/08 11:11:44;;;;;;;9.38;4.20;;;;;;;;;;5078152;27;98682;-80
2023/03/08 11:14:11;;;;;;;8.63;4.30;;;;;;;;;;5060010;27;101970;-80
2023/03/08 11:16:56;;;;;;;8.55;4.43;;;;;;;;;;5077088;27;99179;-80
2023/03/08 11:19:23;;;;;;;8.10;4.32;;;;;;;;;;5078646;27;98153;-79
2023/03/08 11:22:02;;;;;;;8.43;4.32;;;;;;;;;;5062684;27;99387;-80
2023/03/08 11:24:35;;;;;;;8.18;4.43;;;;;;;;;;5049869;27;100585;-80
2023/03/08 11:27:05;;;;;;;8.57;4.50;;;;;;;;;;5065484;27;98490;-80
2023/03/08 11:29:38;;;;;;;8.68;4.55;;;;;;;;;;5078537;27;99285;-80
2023/03/08 11:32:05;;;;;;;8.48;4.22;;;;;;;;;;5068886;27;98050;-80
2023/03/08 11:34:41;;;;;;;8.02;4.50;;;;;;;;;;5048789;27;99729;-81
2023/03/08 11:37:12;;;;;;;8.20;4.40;;;;;;;;;;5076321;27;98792;-80
2023/03/08 11:39:43;;;;;;;8.93;4.40;;;;;;;;;;5054067;27;99985;-84
2023/03/08 11:42:16;;;;;;;7.57;4.13;;;;;;;;;;5077693;27;99551;-79
2023/03/08 11:45:07;;;;;;;6.78;3.50;;;;;;;;;;5076343;27;98640;-80
2023/03/08 11:47:52;;;;;;;7.75;4.28;;;;;;;;;;5062700;27;98380;-80
2023/03/08 11:50:25;;;;;;;7.45;4.00;;;;;;;;;;5059021;27;101188;-79
2023/03/08 11:52:54;;;;;;;9.10;4.07;;;;;;;;;;5076322;27;99372;-81
2023/03/08 11:55:40;;;;;;;8.32;3.70;;;;;;;;;;5040245;27;100851;-80
2023/03/08 11:58:17;;;;;;;8.98;4.00;;;;;;;;;;5056566;27;97987;-80
2023/03/08 12:00:45;;;;;;;9.00;4.30;;;;;;;;;;5049580;27;98402;-79
2023/03/08 12:03:23;;;;;;;7.47;3.88;;;;;;;;;;5078412;27;98769;-81
2023/03/08 12:05:52;;;;;;;8.60;4.15;;;;;;;;;;5076883;27;99485;-80
2023/03/08 12:08:24;;;;;;;8.02;4.15;;;;;;;;;;5074081;27;98904;-80
2023/03/08 12:11:00;;;;;;;8.40;4.03;;;;;;;;;;5044202;27;100294;-82
2023/03/08 12:13:35;;;;;;;8.95;4.57;;;;;;;;;;5078286;27;98197;-81
2023/03/08 12:16:22;;;;;;;8.20;3.83;;;;;;;;;;5077872;27;100539;-83
2023/03/08 12:19:05;;;;;;;9.05;4.20;;;;;;;;;;5058806;27;98824;-81
2023/03/08 12:21:33;;;;;;;7.75;4.07;;;;;;;;;;5053507;27;98302;-79
2023/03/08 12:24:08;;;;;;;8.15;4.15;;;;;;;;;;5059353;27;98842;-81
2023/03/08 12:26:37;;;;;;;6.90;3.55;;;;;;;;;;5040038;27;101532;-80
2023/03/08 12:29:10;;;;;;;8.23;4.00;;;;;;;;;;5059145;27;98518;-81
2023/03/08 12:31:43;;;;;;;6.95;3.35;;;;;;;;;;5067504;27;99305;-80
2023/03/08 12:34:12;;;;;;;7.40;3.55;;;;;;;;;;5067929;27;98714;-81
2023/03/08 12:36:40;;;;;;;8.13;3.80;;;;;;;;;;5074403;27;98298;-79
2023/03/08 12:39:09;;;;;;;7.18;3.47;;;;;;;;;;5077200;27;98779;-80
2023/03/08 12:41:35;;;;;;;7.60;3.95;;;;;;;;;;5076914;27;98775;-81
2023/03/08 12:44:21;;;;;;;7.40;4.05;;;;;;;;;;5039124;27;100801;-81
2023/03/08 12:46:48;;;;;;;;;;;;;;;;;;5057648;27;98834;-80
2023/03/08 12:49:32;;;;;;;7.05;3.75;;;;;;;;;;5046164;27;104959;-80
2023/03/08 12:52:03;;;;;;;6.82;3.50;;;;;;;;;;5077484;27;98681;-80
2023/03/08 12:54:31;;;;;;;9.18;3.30;;;;;;;;;;5053864;27;101743;-81
2023/03/08 12:56:58;;;;;;;7.45;3.78;;;;;;;;;;5046000;27;99020;-81
2023/03/08 12:59:27;;;;;;;6.93;3.50;;;;;;;;;;5058642;27;101154;-81
2023/03/08 13:01:57;;;;;;;7.10;3.40;;;;;;;;;;5042469;27;98192;-81
2023/03/08 13:04:35;;;;;;;6.32;3.28;;;;;;;;;;5056432;27;99042;-83
2023/03/08 13:07:11;;;;;;;9.98;3.78;;;;;;;;;;5054704;27;103210;-79
2023/03/08 13:09:41;;;;;;;11.93;3.83;;;;;;;;;;5057981;27;98586;-79
2023/03/08 13:12:07;;;;;;;11.05;3.80;;;;;;;;;;5056974;27;101413;-78
2023/03/08 13:14:38;;;;;;;11.52;3.90;;;;;;;;;;5074665;27;98139;-79
2023/03/08 13:17:24;;;;;;;12.07;3.60;;;;;;;;;;5059006;27;98693;-80
2023/03/08 13:19:50;;;;;;;8.18;3.72;;;;;;;;;;5074844;27;99339;-79
2023/03/08 13:22:20;;;;;;;8.48;3.35;;;;;;;;;;5075180;27;99104;-78
2023/03/08 13:24:50;;;;;;;13.52;3.60;;;;;;;;;;5040120;27;101670;-79
2023/03/08 13:27:16;;;;;;;8.82;3.53;;;;;;;;;;5038992;27;100068;-78
2023/03/08 13:29:43;;;;;;;9.07;3.47;;;;;;;;;;5076282;27;98442;-78
2023/03/08 13:32:12;;;;;;;7.68;3.47;;;;;;;;;;5039865;27;101245;-78
2023/03/08 13:34:40;;;;;;;12.18;3.42;;;;;;;;;;5074123;27;98833;-80
2023/03/08 13:37:20;;;;;;;8.57;3.60;;;;;;;;;;5055304;27;98725;-79
2023/03/08 13:39:53;;;;;;;10.60;3.40;;;;;;;;;;5077295;27;98710;-78
2023/03/08 13:42:23;;;;;;;11.50;3.55;;;;;;;;;;5052702;27;98809;-80
2023/03/08 13:44:51;;;;;;;12.23;3.58;;;;;;;;;;5055397;27;101079;-78
2023/03/08 13:47:20;;;;;;;9.18;3.50;;;;;;;;;;5024368;27;102093;-79
2023/03/08 13:49:49;;;;;;;11.15;3.70;;;;;;;;;;5075277;27;98616;-79
2023/03/08 13:52:28;;;;;;;8.20;3.47;;;;;;;;;;5056944;27;100724;-79
2023/03/08 13:54:57;;;;;;;7.25;3.30;;;;;;;;;;5075078;27;103349;-79
2023/03/08 13:57:25;;;;;;;6.68;3.40;;;;;;;;;;5057623;27;98216;-78
2023/03/08 13:59:53;;;;;;;6.70;3.25;;;;;;;;;;5037421;27;99809;-81
2023/03/08 14:02:24;;;;;;;7.20;3.25;;;;;;;;;;5050799;27;100715;-81
2023/03/08 14:04:51;;;;;;;7.05;3.63;;;;;;;;;;5058941;27;99192;-79
2023/03/08 14:07:19;;;;;;;6.82;3.53;;;;;;;;;;5059916;27;101258;-81
2023/03/08 14:09:45;;;;;;;7.20;3.70;;;;;;;;;;5070890;27;99237;-81
2023/03/08 14:12:14;;;;;;;7.07;3.25;;;;;;;;;;5051215;27;101116;-81
2023/03/08 14:14:42;;;;;;;6.55;3.40;;;;;;;;;;5056247;27;101189;-79
2023/03/08 14:17:17;;;;;;;6.72;3.40;;;;;;;;;;5077064;27;98341;-81
2023/03/08 14:19:44;;;;;;;7.38;3.40;;;;;;;;;;5074958;27;98736;-79
2023/03/08 14:22:11;;;;;;;6.60;3.30;;;;;;;;;;5055713;27;101590;-79
2023/03/08 14:24:37;;;;;;;8.73;4.05;;;;;;;;;;5059106;27;98570;-80
2023/03/08 14:27:05;;;;;;;11.30;7.05;;;;;;;;;;5073720;27;99342;-80
2023/03/08 14:29:33;;;;;;;13.70;8.82;;;;;;;;;;5073095;27;97703;-79
2023/03/08 14:32:03;;;;;;;13.57;8.90;;;;;;;;;;5076333;27;98633;-79
2023/03/08 14:34:32;;;;;;;12.88;8.23;;;;;;;;;;5076584;27;100169;-80
2023/03/08 14:37:04;;;;;;;11.77;6.38;;;;;;;;;;5057101;27;99340;-79
2023/03/08 14:39:31;;;;;;;10.57;6.70;;;;;;;;;;5078998;27;99694;-78
2023/03/08 14:41:58;;;;;;;;;;;;;;;;;;5057435;27;99102;-80
2023/03/08 14:44:27;;;;;;;9.80;5.63;;;;;;;;;;5079239;27;98485;-80
2023/03/08 14:46:59;;;;;;;9.40;5.20;;;;;;;;;;5081018;27;102816;-80
2023/03/08 14:49:27;;;;;;;8.90;5.05;;;;;;;;;;5058768;27;99750;-80